York, Maine
Current Conditions -  °F | °C
As of 8:58 PM on Thursday 20 Nov 2014 (Local Time) from KPSM Reporting Station
Broken Clouds Broken Clouds  
Wind Chill: 26°   Ceiling: 6500
Heat Index: 34°   Visibility: 10mi
Dew Point: 12°   Wind: 9mph
Humidity: 41%   Direction: 270°W
Pressure: 29.87"   Gusts: 20mph
Location:  43.15°N, 70.65°W
Report Text: KPSM 210158Z 27008G17KT 10SM BKN065 BKN090 01/M11 A2987 RMK AO2A SLP119 T00101110
Loading
Personal Weather Stations






























Interactive Weather Map New forecast layout! Learn more

10-Day Weather Forecast

Advertisements
Track Severe Weather on mobile